Georgia Highway — 7JCV — position and weather

sailwx.info

Track history (hours):
 
Tides and Currents Weather Stations Pressure Air Temp Water Temp Dewpoint Dewpoint Depression Visibility Wind Speed Wind Dir Waves Ship Positions

Georgia Highway

Last reported at 2014-Dec-04 05:32 UTC. Time now 2014-Dec-21 16:37 UTC.
Position N 36°01' W 005°03'.
Warning: this ship's position is 17 days out of date.

Length 199 m; draft 9.5 m.

Type: Ship. MMSI: 432629000.

Date/timePositionNaut miles runAvg speedWind from/ knotsBaromVisibWave heightAir tempDewpointWater temp
2014-Dec-04 05:32N 36°01' W 005°03'1616.7
2014-Dec-04 04:34N 35°58' W 005°23'1918.4
2014-Dec-04 03:31N 35°54' W 005°46'21713.6
2014-Dec-03 11:33N 37°33' W 009°46'4414.3
2014-Dec-03 08:29N 38°16' W 009°58'1314.2
2014-Dec-03 07:34N 38°29' W 010°03'1414.2
2014-Dec-03 06:33N 38°43' W 010°06'1414.2
2014-Dec-03 05:33N 38°57' W 010°07'1414.2
2014-Dec-03 04:33N 39°11' W 010°08'70314.3
2014-Dec-01 03:33N 49°50' W 003°17'1714.3
2014-Dec-01 02:23N 49°58' W 002°54'1613.8
2014-Dec-01 01:15N 50°03' W 002°31'7615.9
2014-Nov-30 20:26N 50°24' W 000°36'2116.5
2014-Nov-30 19:11N 50°30' W 000°05'1015.8
2014-Nov-30 18:33N 50°32' E 000°10'1515.1
2014-Nov-30 17:33N 50°36' E 000°33'1414.3
2014-Nov-30 16:33N 50°43' E 000°53'1414.2
2014-Nov-30 15:33N 50°51' E 001°11'1515.6
2014-Nov-30 14:34N 51°02' E 001°28'1716.6
2014-Nov-30 13:33N 51°15' E 001°46'1616.3
2014-Nov-30 12:33N 51°29' E 001°59'1615.6
2014-Nov-30 11:33N 51°40' E 002°15'3014.4
2014-Nov-30 09:27N 52°03' E 002°48'1213.7
2014-Nov-30 08:33N 52°12' E 003°02'1313.5
2014-Nov-30 07:33N 52°23' E 003°15'1413.8
2014-Nov-30 06:33N 52°34' E 003°27'1514.7
2014-Nov-30 05:34N 52°46' E 003°43'1515.4
2014-Nov-30 04:34N 52°57' E 004°00'1615.6
2014-Nov-30 03:34N 53°08' E 004°19'1515.2
2014-Nov-30 02:34N 53°21' E 004°33'1413.6
2014-Nov-30 01:33N 53°31' E 004°47'1414.2
2014-Nov-30 00:33N 53°36' E 005°10'1414.0
2014-Nov-29 23:33N 53°40' E 005°32'1414.2
2014-Nov-29 22:33N 53°45' E 005°55'1514.8
2014-Nov-29 21:33N 53°49' E 006°19'1615.8
2014-Nov-29 20:33N 53°52' E 006°45'1616.0
2014-Nov-29 19:33N 53°56' E 007°11'1615.7
2014-Nov-29 18:33N 53°60' E 007°37'1312.5
2014-Nov-29 17:33N 53°52' E 007°54'1414.4
2014-Nov-29 16:33N 53°44' E 008°14'1312.9
2014-Nov-29 15:34N 53°36' E 008°31'2 2.1
2014-Nov-29 14:33N 53°34' E 008°33'1 0.5
2014-Nov-29 13:33N 53°35' E 008°33'0 0.0
2014-Nov-29 12:33N 53°35' E 008°33'0 0.0
2014-Nov-29 11:33N 53°35' E 008°33'0 0.0
2014-Nov-29 10:33N 53°35' E 008°33'0 0.0
2014-Nov-29 09:33N 53°35' E 008°33'0 0.0
2014-Nov-29 08:33N 53°35' E 008°33'0 0.0
2014-Nov-29 07:33N 53°35' E 008°33'0 0.0
2014-Nov-29 06:33N 53°35' E 008°33'0 0.0
2014-Nov-29 05:33N 53°35' E 008°33'0 0.0
2014-Nov-29 04:33N 53°35' E 008°33'0 0.0
2014-Nov-29 03:33N 53°35' E 008°33'0 0.0
2014-Nov-29 02:33N 53°35' E 008°33'0 0.0
2014-Nov-29 01:33N 53°35' E 008°33'0 0.0
2014-Nov-29 00:33N 53°35' E 008°33'0 0.0
2014-Nov-28 23:33N 53°35' E 008°33'0 0.0
2014-Nov-28 22:33N 53°35' E 008°33'0 0.0
2014-Nov-28 21:33N 53°35' E 008°33'0 0.0
2014-Nov-28 20:33N 53°35' E 008°33'0 0.0
2014-Nov-28 19:33N 53°35' E 008°33'0 0.0
2014-Nov-28 18:33N 53°35' E 008°33'0 0.0
2014-Nov-28 17:33N 53°35' E 008°33'0 0.0
2014-Nov-28 16:33N 53°35' E 008°33'0 0.0
2014-Nov-28 15:33N 53°35' E 008°33'0 0.0
2014-Nov-28 14:33N 53°35' E 008°33'0 0.0
2014-Nov-28 13:30N 53°35' E 008°33'0 0.0
2014-Nov-28 12:33N 53°35' E 008°33'0 0.0
2014-Nov-28 11:33N 53°35' E 008°33'0 0.0
2014-Nov-28 10:30N 53°35' E 008°33'0 0.0
2014-Nov-28 09:33N 53°35' E 008°33'0 0.0
2014-Nov-28 08:33N 53°35' E 008°33'0 0.0
2014-Nov-28 07:33N 53°35' E 008°33'0 0.0
2014-Nov-28 06:33N 53°35' E 008°33'0 0.0
2014-Nov-28 05:33N 53°35' E 008°33'0 0.5
2014-Nov-28 04:33N 53°34' E 008°33'1 1.3
2014-Nov-28 03:33N 53°35' E 008°31'1414.3
2014-Nov-28 02:33N 53°45' E 008°13'1515.2
2014-Nov-28 01:33N 53°52' E 007°51'8 7.9
2014-Nov-28 00:33N 53°56' E 007°40'5 4.8
2014-Nov-27 23:33N 53°55' E 007°32'1615.6
2014-Nov-27 22:31N 53°51' E 007°05'1515.6
2014-Nov-27 21:33N 53°49' E 006°40'3014.8
2014-Nov-27 19:30N 53°60' E 007°28'1212.5
2014-Nov-27 18:33N 53°58' E 007°47'1613.9
2014-Nov-27 17:24N 53°53' E 007°21'1214.4
2014-Nov-27 16:33N 53°51' E 007°01'1515.3
2014-Nov-27 15:33N 53°47' E 006°36'1615.6
2014-Nov-27 14:33N 53°43' E 006°11'1615.9
2014-Nov-27 13:33N 53°38' E 005°45'1616.3
2014-Nov-27 12:33N 53°34' E 005°19'1716.6
2014-Nov-27 11:33N 53°28' E 004°52'1716.5
2014-Nov-27 10:33N 53°15' E 004°35'1717.4
2014-Nov-27 09:33N 52°59' E 004°22'1717.1
2014-Nov-27 08:32N 52°44' E 004°07'1817.8
2014-Nov-27 07:33N 52°32' E 003°47'6420.7
2014-Nov-27 04:29N 51°46' E 002°35'2021.4
2014-Nov-27 03:33N 51°30' E 002°14'1919.7
2014-Nov-27 02:34N 51°13' E 002°02'2121.3
2014-Nov-27 01:33N 50°59' E 001°36'4519.8
2014-Nov-26 23:18N 50°29' E 000°44'1621.3
2014-Nov-26 22:33N 50°24' E 000°20'4119.3
2014-Nov-26 20:27N 50°34' W 000°41'1314.6
2014-Nov-26 19:33N 50°42' W 000°58'1313.1
2014-Nov-26 18:33N 50°47' W 001°18'8 7.9
2014-Nov-26 17:34N 50°53' W 001°24'0 0.1
2014-Nov-26 16:33N 50°53' W 001°24'0 0.0
2014-Nov-26 15:33N 50°53' W 001°24'0 0.0
2014-Nov-26 14:27N 50°53' W 001°24'0 0.0
2014-Nov-26 13:33N 50°53' W 001°24'0 0.0
2014-Nov-26 12:33N 50°53' W 001°24'0 0.0
2014-Nov-26 11:33N 50°53' W 001°24'0 0.0
2014-Nov-26 10:33N 50°53' W 001°24'0 0.0
2014-Nov-26 09:33N 50°53' W 001°24'0 0.0
2014-Nov-26 08:33N 50°53' W 001°24'0 0.0
2014-Nov-26 07:33N 50°53' W 001°24'0 0.0
2014-Nov-26 06:33N 50°53' W 001°24'0 0.0
2014-Nov-26 05:33N 50°53' W 001°24'0 0.0
2014-Nov-26 04:33N 50°53' W 001°24'0 0.0
2014-Nov-26 03:33N 50°53' W 001°24'0 0.1
2014-Nov-26 02:33N 50°53' W 001°24'7 7.0
2014-Nov-26 01:34N 50°47' W 001°19'1514.6
2014-Nov-26 00:33N 50°41' W 000°58'8 7.7
2014-Nov-25 23:33N 50°38' W 000°47'2417.0
2014-Nov-25 22:10N 50°33' W 000°10'1016.9
2014-Nov-25 21:32N 50°34' E 000°06'1818.2
2014-Nov-25 20:34N 50°38' E 000°33'2020.2
2014-Nov-25 19:34N 50°49' E 001°00'2120.9
2014-Nov-25 18:34N 51°03' E 001°25'1919.1
2014-Nov-25 17:34N 51°16' E 001°47'1817.8
2014-Nov-25 16:34N 51°30' E 002°03'1717.1
2014-Nov-25 15:34N 51°43' E 002°21'1817.2
2014-Nov-25 14:32N 51°57' E 002°39'3718.7
2014-Nov-25 12:33N 52°26' E 003°18'2219.6
2014-Nov-25 11:24N 52°44' E 003°40'1819.9
2014-Nov-25 10:31N 52°57' E 003°59'1919.3
2014-Nov-25 09:33N 53°10' E 004°22'1818.2
2014-Nov-25 08:34N 53°26' E 004°34'1717.2
2014-Nov-25 07:34N 53°33' E 005°01'1717.5
2014-Nov-25 06:34N 53°39' E 005°28'1818.4
2014-Nov-25 05:33N 53°45' E 005°57'5819.4
2014-Nov-25 02:34N 53°59' E 007°33'1414.0
2014-Nov-25 01:33N 53°52' E 007°54'1515.3
2014-Nov-25 00:33N 53°44' E 008°15'1313.1
2014-Nov-24 23:33N 53°35' E 008°32'1 1.0
2014-Nov-24 22:33N 53°34' E 008°33'0 0.3
2014-Nov-24 21:32N 53°35' E 008°33'0 0.0
2014-Nov-24 20:32N 53°35' E 008°33'0 0.0
2014-Nov-24 19:32N 53°35' E 008°33'0 0.0
2014-Nov-24 18:32N 53°35' E 008°33'0 0.0
2014-Nov-24 17:32N 53°35' E 008°33'0 0.0
2014-Nov-24 16:32N 53°35' E 008°33'0 0.0
2014-Nov-24 15:32N 53°35' E 008°33'0 0.0
2014-Nov-24 14:32N 53°35' E 008°33'0 0.0
2014-Nov-24 13:32N 53°35' E 008°33'0 0.0
2014-Nov-24 12:32N 53°35' E 008°33'0 0.0
2014-Nov-24 11:32N 53°35' E 008°33'0 0.0
2014-Nov-24 10:32N 53°35' E 008°33'0 0.0
2014-Nov-24 09:32N 53°35' E 008°33'0 0.0
2014-Nov-24 08:32N 53°35' E 008°33'0 0.0
2014-Nov-24 07:32N 53°35' E 008°33'0 0.0
2014-Nov-24 06:32N 53°35' E 008°33'0 0.0
2014-Nov-24 05:32N 53°35' E 008°33'  
Track history (hours):
 
Tides and Currents Weather Stations Pressure Air Temp Water Temp Dewpoint Dewpoint Depression Visibility Wind Speed Wind Dir Waves Ship Positions

Georgia Highway

Last reported at 2014-Dec-04 05:32 UTC. Time now 2014-Dec-21 16:37 UTC.
Position N 36°01' W 005°03'.
Warning: this ship's position is 17 days out of date.

Length 199 m; draft 9.5 m.

Type: Ship. MMSI: 432629000.

Date/timePositionNaut miles runAvg speedWind from/ knotsBaromVisibWave heightAir tempDewpointWater temp
2014-Dec-04 05:32N 36°01' W 005°03'1616.7
2014-Dec-04 04:34N 35°58' W 005°23'1918.4
2014-Dec-04 03:31N 35°54' W 005°46'21713.6
2014-Dec-03 11:33N 37°33' W 009°46'4414.3
2014-Dec-03 08:29N 38°16' W 009°58'1314.2
2014-Dec-03 07:34N 38°29' W 010°03'1414.2
2014-Dec-03 06:33N 38°43' W 010°06'1414.2
2014-Dec-03 05:33N 38°57' W 010°07'1414.2
2014-Dec-03 04:33N 39°11' W 010°08'70314.3
2014-Dec-01 03:33N 49°50' W 003°17'1714.3
2014-Dec-01 02:23N 49°58' W 002°54'1613.8
2014-Dec-01 01:15N 50°03' W 002°31'7615.9
2014-Nov-30 20:26N 50°24' W 000°36'2116.5
2014-Nov-30 19:11N 50°30' W 000°05'1015.8
2014-Nov-30 18:33N 50°32' E 000°10'1515.1
2014-Nov-30 17:33N 50°36' E 000°33'1414.3
2014-Nov-30 16:33N 50°43' E 000°53'1414.2
2014-Nov-30 15:33N 50°51' E 001°11'1515.6
2014-Nov-30 14:34N 51°02' E 001°28'1716.6
2014-Nov-30 13:33N 51°15' E 001°46'1616.3
2014-Nov-30 12:33N 51°29' E 001°59'1615.6
2014-Nov-30 11:33N 51°40' E 002°15'3014.4
2014-Nov-30 09:27N 52°03' E 002°48'1213.7
2014-Nov-30 08:33N 52°12' E 003°02'1313.5
2014-Nov-30 07:33N 52°23' E 003°15'1413.8
2014-Nov-30 06:33N 52°34' E 003°27'1514.7
2014-Nov-30 05:34N 52°46' E 003°43'1515.4
2014-Nov-30 04:34N 52°57' E 004°00'1615.6
2014-Nov-30 03:34N 53°08' E 004°19'1515.2
2014-Nov-30 02:34N 53°21' E 004°33'1413.6
2014-Nov-30 01:33N 53°31' E 004°47'1414.2
2014-Nov-30 00:33N 53°36' E 005°10'1414.0
2014-Nov-29 23:33N 53°40' E 005°32'1414.2
2014-Nov-29 22:33N 53°45' E 005°55'1514.8
2014-Nov-29 21:33N 53°49' E 006°19'1615.8
2014-Nov-29 20:33N 53°52' E 006°45'1616.0
2014-Nov-29 19:33N 53°56' E 007°11'1615.7
2014-Nov-29 18:33N 53°60' E 007°37'1312.5
2014-Nov-29 17:33N 53°52' E 007°54'1414.4
2014-Nov-29 16:33N 53°44' E 008°14'1312.9
2014-Nov-29 15:34N 53°36' E 008°31'2 2.1
2014-Nov-29 14:33N 53°34' E 008°33'1 0.5
2014-Nov-29 13:33N 53°35' E 008°33'0 0.0
2014-Nov-29 12:33N 53°35' E 008°33'0 0.0
2014-Nov-29 11:33N 53°35' E 008°33'0 0.0
2014-Nov-29 10:33N 53°35' E 008°33'0 0.0
2014-Nov-29 09:33N 53°35' E 008°33'0 0.0
2014-Nov-29 08:33N 53°35' E 008°33'0 0.0
2014-Nov-29 07:33N 53°35' E 008°33'0 0.0
2014-Nov-29 06:33N 53°35' E 008°33'0 0.0
2014-Nov-29 05:33N 53°35' E 008°33'0 0.0
2014-Nov-29 04:33N 53°35' E 008°33'0 0.0
2014-Nov-29 03:33N 53°35' E 008°33'0 0.0
2014-Nov-29 02:33N 53°35' E 008°33'0 0.0
2014-Nov-29 01:33N 53°35' E 008°33'0 0.0
2014-Nov-29 00:33N 53°35' E 008°33'0 0.0
2014-Nov-28 23:33N 53°35' E 008°33'0 0.0
2014-Nov-28 22:33N 53°35' E 008°33'0 0.0
2014-Nov-28 21:33N 53°35' E 008°33'0 0.0
2014-Nov-28 20:33N 53°35' E 008°33'0 0.0
2014-Nov-28 19:33N 53°35' E 008°33'0 0.0
2014-Nov-28 18:33N 53°35' E 008°33'0 0.0
2014-Nov-28 17:33N 53°35' E 008°33'0 0.0
2014-Nov-28 16:33N 53°35' E 008°33'0 0.0
2014-Nov-28 15:33N 53°35' E 008°33'0 0.0
2014-Nov-28 14:33N 53°35' E 008°33'0 0.0
2014-Nov-28 13:30N 53°35' E 008°33'0 0.0
2014-Nov-28 12:33N 53°35' E 008°33'0 0.0
2014-Nov-28 11:33N 53°35' E 008°33'0 0.0
2014-Nov-28 10:30N 53°35' E 008°33'0 0.0
2014-Nov-28 09:33N 53°35' E 008°33'0 0.0
2014-Nov-28 08:33N 53°35' E 008°33'0 0.0
2014-Nov-28 07:33N 53°35' E 008°33'0 0.0
2014-Nov-28 06:33N 53°35' E 008°33'0 0.0
2014-Nov-28 05:33N 53°35' E 008°33'0 0.5
2014-Nov-28 04:33N 53°34' E 008°33'1 1.3
2014-Nov-28 03:33N 53°35' E 008°31'1414.3
2014-Nov-28 02:33N 53°45' E 008°13'1515.2
2014-Nov-28 01:33N 53°52' E 007°51'8 7.9
2014-Nov-28 00:33N 53°56' E 007°40'5 4.8
2014-Nov-27 23:33N 53°55' E 007°32'1615.6
2014-Nov-27 22:31N 53°51' E 007°05'1515.6
2014-Nov-27 21:33N 53°49' E 006°40'3014.8
2014-Nov-27 19:30N 53°60' E 007°28'1212.5
2014-Nov-27 18:33N 53°58' E 007°47'1613.9
2014-Nov-27 17:24N 53°53' E 007°21'1214.4
2014-Nov-27 16:33N 53°51' E 007°01'1515.3
2014-Nov-27 15:33N 53°47' E 006°36'1615.6
2014-Nov-27 14:33N 53°43' E 006°11'1615.9
2014-Nov-27 13:33N 53°38' E 005°45'1616.3
2014-Nov-27 12:33N 53°34' E 005°19'1716.6
2014-Nov-27 11:33N 53°28' E 004°52'1716.5
2014-Nov-27 10:33N 53°15' E 004°35'1717.4
2014-Nov-27 09:33N 52°59' E 004°22'1717.1
2014-Nov-27 08:32N 52°44' E 004°07'1817.8
2014-Nov-27 07:33N 52°32' E 003°47'6420.7
2014-Nov-27 04:29N 51°46' E 002°35'2021.4
2014-Nov-27 03:33N 51°30' E 002°14'1919.7
2014-Nov-27 02:34N 51°13' E 002°02'2121.3
2014-Nov-27 01:33N 50°59' E 001°36'4519.8
2014-Nov-26 23:18N 50°29' E 000°44'1621.3
2014-Nov-26 22:33N 50°24' E 000°20'4119.3
2014-Nov-26 20:27N 50°34' W 000°41'1314.6
2014-Nov-26 19:33N 50°42' W 000°58'1313.1
2014-Nov-26 18:33N 50°47' W 001°18'8 7.9
2014-Nov-26 17:34N 50°53' W 001°24'0 0.1
2014-Nov-26 16:33N 50°53' W 001°24'0 0.0
2014-Nov-26 15:33N 50°53' W 001°24'0 0.0
2014-Nov-26 14:27N 50°53' W 001°24'0 0.0
2014-Nov-26 13:33N 50°53' W 001°24'0 0.0
2014-Nov-26 12:33N 50°53' W 001°24'0 0.0
2014-Nov-26 11:33N 50°53' W 001°24'0 0.0
2014-Nov-26 10:33N 50°53' W 001°24'0 0.0
2014-Nov-26 09:33N 50°53' W 001°24'0 0.0
2014-Nov-26 08:33N 50°53' W 001°24'0 0.0
2014-Nov-26 07:33N 50°53' W 001°24'0 0.0
2014-Nov-26 06:33N 50°53' W 001°24'0 0.0
2014-Nov-26 05:33N 50°53' W 001°24'0 0.0
2014-Nov-26 04:33N 50°53' W 001°24'0 0.0
2014-Nov-26 03:33N 50°53' W 001°24'0 0.1
2014-Nov-26 02:33N 50°53' W 001°24'7 7.0
2014-Nov-26 01:34N 50°47' W 001°19'1514.6
2014-Nov-26 00:33N 50°41' W 000°58'8 7.7
2014-Nov-25 23:33N 50°38' W 000°47'2417.0
2014-Nov-25 22:10N 50°33' W 000°10'1016.9
2014-Nov-25 21:32N 50°34' E 000°06'1818.2
2014-Nov-25 20:34N 50°38' E 000°33'2020.2
2014-Nov-25 19:34N 50°49' E 001°00'2120.9
2014-Nov-25 18:34N 51°03' E 001°25'1919.1
2014-Nov-25 17:34N 51°16' E 001°47'1817.8
2014-Nov-25 16:34N 51°30' E 002°03'1717.1
2014-Nov-25 15:34N 51°43' E 002°21'1817.2
2014-Nov-25 14:32N 51°57' E 002°39'3718.7
2014-Nov-25 12:33N 52°26' E 003°18'2219.6
2014-Nov-25 11:24N 52°44' E 003°40'1819.9
2014-Nov-25 10:31N 52°57' E 003°59'1919.3
2014-Nov-25 09:33N 53°10' E 004°22'1818.2
2014-Nov-25 08:34N 53°26' E 004°34'1717.2
2014-Nov-25 07:34N 53°33' E 005°01'1717.5
2014-Nov-25 06:34N 53°39' E 005°28'1818.4
2014-Nov-25 05:33N 53°45' E 005°57'5819.4
2014-Nov-25 02:34N 53°59' E 007°33'1414.0
2014-Nov-25 01:33N 53°52' E 007°54'1515.3
2014-Nov-25 00:33N 53°44' E 008°15'1313.1
2014-Nov-24 23:33N 53°35' E 008°32'1 1.0
2014-Nov-24 22:33N 53°34' E 008°33'0 0.3
2014-Nov-24 21:32N 53°35' E 008°33'0 0.0
2014-Nov-24 20:32N 53°35' E 008°33'0 0.0
2014-Nov-24 19:32N 53°35' E 008°33'0 0.0
2014-Nov-24 18:32N 53°35' E 008°33'0 0.0
2014-Nov-24 17:32N 53°35' E 008°33'0 0.0
2014-Nov-24 16:32N 53°35' E 008°33'0 0.0
2014-Nov-24 15:32N 53°35' E 008°33'0 0.0
2014-Nov-24 14:32N 53°35' E 008°33'0 0.0
2014-Nov-24 13:32N 53°35' E 008°33'0 0.0
2014-Nov-24 12:32N 53°35' E 008°33'0 0.0
2014-Nov-24 11:32N 53°35' E 008°33'0 0.0
2014-Nov-24 10:32N 53°35' E 008°33'0 0.0
2014-Nov-24 09:32N 53°35' E 008°33'0 0.0
2014-Nov-24 08:32N 53°35' E 008°33'0 0.0
2014-Nov-24 07:32N 53°35' E 008°33'0 0.0
2014-Nov-24 06:32N 53°35' E 008°33'0 0.0
2014-Nov-24 05:32N 53°35' E 008°33'  

Dump ship's entire track history